sensor_id;sensor_type;location;lat;lon;timestamp;P1;durP1;ratioP1;P2;durP2;ratioP2
38463;SDS011;24243;51.956;5.902;2023-04-24T00:00:11;0.47;;;0.20;;
38463;SDS011;24243;51.956;5.902;2023-04-24T00:02:40;0.40;;;0.10;;
38463;SDS011;24243;51.956;5.902;2023-04-24T00:05:13;0.57;;;0.10;;
38463;SDS011;24243;51.956;5.902;2023-04-24T00:07:40;0.30;;;0.10;;
38463;SDS011;24243;51.956;5.902;2023-04-24T00:10:06;0.43;;;0.10;;
38463;SDS011;24243;51.956;5.902;2023-04-24T00:12:33;0.10;;;0.08;;
38463;SDS011;24243;51.956;5.902;2023-04-24T00:14:59;0.10;;;0.05;;
38463;SDS011;24243;51.956;5.902;2023-04-24T00:17:25;0.17;;;0.10;;
38463;SDS011;24243;51.956;5.902;2023-04-24T00:19:51;0.10;;;0.10;;
38463;SDS011;24243;51.956;5.902;2023-04-24T00:22:23;0.45;;;0.10;;
38463;SDS011;24243;51.956;5.902;2023-04-24T00:24:49;0.00;;;0.00;;
38463;SDS011;24243;51.956;5.902;2023-04-24T00:27:15;0.10;;;0.10;;
38463;SDS011;24243;51.956;5.902;2023-04-24T00:29:41;0.20;;;0.00;;
38463;SDS011;24243;51.956;5.902;2023-04-24T00:32:07;0.17;;;0.10;;
38463;SDS011;24243;51.956;5.902;2023-04-24T00:34:32;0.22;;;0.20;;
38463;SDS011;24243;51.956;5.902;2023-04-24T00:36:58;0.70;;;0.10;;
38463;SDS011;24243;51.956;5.902;2023-04-24T00:39:24;0.10;;;0.10;;
38463;SDS011;24243;51.956;5.902;2023-04-24T00:41:50;0.52;;;0.05;;
38463;SDS011;24243;51.956;5.902;2023-04-24T00:44:16;0.70;;;0.10;;
38463;SDS011;24243;51.956;5.902;2023-04-24T00:46:42;0.82;;;0.20;;
38463;SDS011;24243;51.956;5.902;2023-04-24T00:49:08;0.10;;;0.10;;
38463;SDS011;24243;51.956;5.902;2023-04-24T00:51:33;0.30;;;0.10;;
38463;SDS011;24243;51.956;5.902;2023-04-24T00:54:00;0.43;;;0.10;;
38463;SDS011;24243;51.956;5.902;2023-04-24T00:56:26;0.00;;;0.00;;
38463;SDS011;24243;51.956;5.902;2023-04-24T00:58:53;0.35;;;0.00;;
38463;SDS011;24243;51.956;5.902;2023-04-24T01:01:20;0.10;;;0.00;;
38463;SDS011;24243;51.956;5.902;2023-04-24T01:03:47;0.10;;;0.03;;
38463;SDS011;24243;51.956;5.902;2023-04-24T01:06:15;0.30;;;0.10;;
38463;SDS011;24243;51.956;5.902;2023-04-24T01:08:40;0.10;;;0.00;;
38463;SDS011;24243;51.956;5.902;2023-04-24T01:11:07;0.10;;;0.10;;
38463;SDS011;24243;51.956;5.902;2023-04-24T01:13:33;0.35;;;0.10;;
38463;SDS011;24243;51.956;5.902;2023-04-24T01:15:59;0.10;;;0.10;;
38463;SDS011;24243;51.956;5.902;2023-04-24T01:18:25;0.60;;;0.10;;
38463;SDS011;24243;51.956;5.902;2023-04-24T01:20:53;0.40;;;0.20;;
38463;SDS011;24243;51.956;5.902;2023-04-24T01:23:21;0.60;;;0.10;;
38463;SDS011;24243;51.956;5.902;2023-04-24T01:25:48;0.30;;;0.10;;
38463;SDS011;24243;51.956;5.902;2023-04-24T01:28:15;0.70;;;0.52;;
38463;SDS011;24243;51.956;5.902;2023-04-24T01:30:42;0.20;;;0.10;;
38463;SDS011;24243;51.956;5.902;2023-04-24T01:33:08;0.45;;;0.20;;
38463;SDS011;24243;51.956;5.902;2023-04-24T01:35:34;0.40;;;0.22;;
38463;SDS011;24243;51.956;5.902;2023-04-24T01:38:01;0.40;;;0.20;;
38463;SDS011;24243;51.956;5.902;2023-04-24T01:40:27;0.38;;;0.10;;
38463;SDS011;24243;51.956;5.902;2023-04-24T01:42:53;0.25;;;0.10;;
38463;SDS011;24243;51.956;5.902;2023-04-24T01:45:19;0.63;;;0.15;;
38463;SDS011;24243;51.956;5.902;2023-04-24T01:47:45;0.70;;;0.20;;
38463;SDS011;24243;51.956;5.902;2023-04-24T01:50:11;0.20;;;0.17;;
38463;SDS011;24243;51.956;5.902;2023-04-24T01:52:37;0.15;;;0.10;;
38463;SDS011;24243;51.956;5.902;2023-04-24T01:55:03;0.50;;;0.20;;
38463;SDS011;24243;51.956;5.902;2023-04-24T01:57:30;0.30;;;0.15;;
38463;SDS011;24243;51.956;5.902;2023-04-24T01:59:56;0.20;;;0.20;;
38463;SDS011;24243;51.956;5.902;2023-04-24T02:02:23;0.20;;;0.10;;
38463;SDS011;24243;51.956;5.902;2023-04-24T02:04:49;0.20;;;0.10;;
38463;SDS011;24243;51.956;5.902;2023-04-24T02:07:15;0.28;;;0.20;;
38463;SDS011;24243;51.956;5.902;2023-04-24T02:09:41;0.22;;;0.15;;
38463;SDS011;24243;51.956;5.902;2023-04-24T02:12:07;0.60;;;0.20;;
38463;SDS011;24243;51.956;5.902;2023-04-24T02:14:33;0.20;;;0.10;;
38463;SDS011;24243;51.956;5.902;2023-04-24T02:16:58;0.82;;;0.10;;
38463;SDS011;24243;51.956;5.902;2023-04-24T02:19:25;0.35;;;0.20;;
38463;SDS011;24243;51.956;5.902;2023-04-24T02:21:51;0.20;;;0.20;;
38463;SDS011;24243;51.956;5.902;2023-04-24T02:24:17;0.20;;;0.20;;
38463;SDS011;24243;51.956;5.902;2023-04-24T02:26:43;1.48;;;0.20;;
38463;SDS011;24243;51.956;5.902;2023-04-24T02:29:09;0.68;;;0.30;;
38463;SDS011;24243;51.956;5.902;2023-04-24T02:31:34;0.77;;;0.30;;
38463;SDS011;24243;51.956;5.902;2023-04-24T02:34:00;0.35;;;0.22;;
38463;SDS011;24243;51.956;5.902;2023-04-24T02:36:26;0.55;;;0.30;;
38463;SDS011;24243;51.956;5.902;2023-04-24T02:38:51;0.32;;;0.25;;
38463;SDS011;24243;51.956;5.902;2023-04-24T02:41:17;0.55;;;0.20;;
38463;SDS011;24243;51.956;5.902;2023-04-24T02:43:43;0.75;;;0.47;;
38463;SDS011;24243;51.956;5.902;2023-04-24T02:46:08;0.52;;;0.28;;
38463;SDS011;24243;51.956;5.902;2023-04-24T02:48:34;0.70;;;0.40;;
38463;SDS011;24243;51.956;5.902;2023-04-24T02:51:00;0.47;;;0.32;;
38463;SDS011;24243;51.956;5.902;2023-04-24T02:53:25;1.02;;;0.40;;
38463;SDS011;24243;51.956;5.902;2023-04-24T02:55:51;0.82;;;0.35;;
38463;SDS011;24243;51.956;5.902;2023-04-24T02:58:17;0.55;;;0.22;;
38463;SDS011;24243;51.956;5.902;2023-04-24T03:00:45;0.93;;;0.30;;
38463;SDS011;24243;51.956;5.902;2023-04-24T03:03:11;0.50;;;0.30;;
38463;SDS011;24243;51.956;5.902;2023-04-24T03:05:37;0.40;;;0.20;;
38463;SDS011;24243;51.956;5.902;2023-04-24T03:08:03;1.13;;;0.30;;
38463;SDS011;24243;51.956;5.902;2023-04-24T03:10:29;0.65;;;0.30;;
38463;SDS011;24243;51.956;5.902;2023-04-24T03:12:54;0.30;;;0.30;;
38463;SDS011;24243;51.956;5.902;2023-04-24T03:15:20;0.30;;;0.30;;
38463;SDS011;24243;51.956;5.902;2023-04-24T03:17:49;0.68;;;0.40;;
38463;SDS011;24243;51.956;5.902;2023-04-24T03:20:15;0.20;;;0.20;;
38463;SDS011;24243;51.956;5.902;2023-04-24T03:22:41;0.90;;;0.25;;
38463;SDS011;24243;51.956;5.902;2023-04-24T03:25:06;1.10;;;0.40;;
38463;SDS011;24243;51.956;5.902;2023-04-24T03:27:34;0.55;;;0.40;;
38463;SDS011;24243;51.956;5.902;2023-04-24T03:30:00;1.00;;;0.50;;
38463;SDS011;24243;51.956;5.902;2023-04-24T03:32:26;0.47;;;0.30;;
38463;SDS011;24243;51.956;5.902;2023-04-24T03:34:51;0.40;;;0.32;;
38463;SDS011;24243;51.956;5.902;2023-04-24T03:37:17;0.40;;;0.30;;
38463;SDS011;24243;51.956;5.902;2023-04-24T03:39:43;0.28;;;0.20;;
38463;SDS011;24243;51.956;5.902;2023-04-24T03:42:09;0.30;;;0.30;;
38463;SDS011;24243;51.956;5.902;2023-04-24T03:44:35;0.25;;;0.25;;
38463;SDS011;24243;51.956;5.902;2023-04-24T03:47:01;0.60;;;0.40;;
38463;SDS011;24243;51.956;5.902;2023-04-24T03:49:26;0.47;;;0.32;;
38463;SDS011;24243;51.956;5.902;2023-04-24T03:51:52;0.70;;;0.40;;
38463;SDS011;24243;51.956;5.902;2023-04-24T03:54:18;0.55;;;0.35;;
38463;SDS011;24243;51.956;5.902;2023-04-24T03:56:45;0.73;;;0.40;;
38463;SDS011;24243;51.956;5.902;2023-04-24T03:59:11;1.02;;;0.50;;
38463;SDS011;24243;51.956;5.902;2023-04-24T04:01:36;0.32;;;0.30;;
38463;SDS011;24243;51.956;5.902;2023-04-24T04:04:03;1.73;;;0.40;;
38463;SDS011;24243;51.956;5.902;2023-04-24T04:06:29;0.75;;;0.47;;
38463;SDS011;24243;51.956;5.902;2023-04-24T04:08:56;1.08;;;0.45;;
38463;SDS011;24243;51.956;5.902;2023-04-24T04:11:22;0.65;;;0.40;;
38463;SDS011;24243;51.956;5.902;2023-04-24T04:13:48;0.57;;;0.50;;
38463;SDS011;24243;51.956;5.902;2023-04-24T04:16:14;0.80;;;0.40;;
38463;SDS011;24243;51.956;5.902;2023-04-24T04:18:42;1.00;;;0.52;;
38463;SDS011;24243;51.956;5.902;2023-04-24T04:21:10;1.08;;;0.50;;
38463;SDS011;24243;51.956;5.902;2023-04-24T04:23:36;1.00;;;0.50;;
38463;SDS011;24243;51.956;5.902;2023-04-24T04:26:02;0.70;;;0.47;;
38463;SDS011;24243;51.956;5.902;2023-04-24T04:28:29;1.40;;;0.50;;
38463;SDS011;24243;51.956;5.902;2023-04-24T04:30:57;0.73;;;0.50;;
38463;SDS011;24243;51.956;5.902;2023-04-24T04:33:24;0.50;;;0.40;;
38463;SDS011;24243;51.956;5.902;2023-04-24T04:35:50;0.70;;;0.50;;
38463;SDS011;24243;51.956;5.902;2023-04-24T04:38:17;0.80;;;0.50;;
38463;SDS011;24243;51.956;5.902;2023-04-24T04:40:44;0.80;;;0.50;;
38463;SDS011;24243;51.956;5.902;2023-04-24T04:43:10;0.70;;;0.60;;
38463;SDS011;24243;51.956;5.902;2023-04-24T04:45:36;0.55;;;0.50;;
38463;SDS011;24243;51.956;5.902;2023-04-24T04:48:04;0.98;;;0.70;;
38463;SDS011;24243;51.956;5.902;2023-04-24T04:50:32;0.85;;;0.57;;
38463;SDS011;24243;51.956;5.902;2023-04-24T04:52:58;1.05;;;0.73;;
38463;SDS011;24243;51.956;5.902;2023-04-24T04:55:23;0.82;;;0.60;;
38463;SDS011;24243;51.956;5.902;2023-04-24T04:57:49;0.73;;;0.68;;
38463;SDS011;24243;51.956;5.902;2023-04-24T05:00:16;1.27;;;0.50;;
38463;SDS011;24243;51.956;5.902;2023-04-24T05:02:41;1.00;;;0.70;;
38463;SDS011;24243;51.956;5.902;2023-04-24T05:05:07;1.33;;;0.93;;
38463;SDS011;24243;51.956;5.902;2023-04-24T05:07:34;0.65;;;0.50;;
38463;SDS011;24243;51.956;5.902;2023-04-24T05:10:00;1.23;;;0.80;;
38463;SDS011;24243;51.956;5.902;2023-04-24T05:12:25;0.90;;;0.75;;
38463;SDS011;24243;51.956;5.902;2023-04-24T05:14:51;0.88;;;0.55;;
38463;SDS011;24243;51.956;5.902;2023-04-24T05:17:17;0.60;;;0.60;;
38463;SDS011;24243;51.956;5.902;2023-04-24T05:19:43;1.10;;;0.65;;
38463;SDS011;24243;51.956;5.902;2023-04-24T05:22:10;0.95;;;0.65;;
38463;SDS011;24243;51.956;5.902;2023-04-24T05:24:36;1.92;;;0.70;;
38463;SDS011;24243;51.956;5.902;2023-04-24T05:27:02;1.35;;;0.82;;
38463;SDS011;24243;51.956;5.902;2023-04-24T05:29:29;1.55;;;1.00;;
38463;SDS011;24243;51.956;5.902;2023-04-24T05:31:56;1.15;;;0.80;;
38463;SDS011;24243;51.956;5.902;2023-04-24T05:34:22;1.77;;;0.80;;
38463;SDS011;24243;51.956;5.902;2023-04-24T05:36:48;1.30;;;0.75;;
38463;SDS011;24243;51.956;5.902;2023-04-24T05:39:15;1.45;;;0.73;;
38463;SDS011;24243;51.956;5.902;2023-04-24T05:41:41;1.25;;;0.77;;
38463;SDS011;24243;51.956;5.902;2023-04-24T05:44:07;1.33;;;1.00;;
38463;SDS011;24243;51.956;5.902;2023-04-24T05:46:33;1.95;;;0.90;;
38463;SDS011;24243;51.956;5.902;2023-04-24T05:48:59;2.03;;;0.90;;
38463;SDS011;24243;51.956;5.902;2023-04-24T05:51:25;1.65;;;1.05;;
38463;SDS011;24243;51.956;5.902;2023-04-24T05:53:51;1.35;;;0.95;;
38463;SDS011;24243;51.956;5.902;2023-04-24T05:56:17;4.03;;;1.23;;
38463;SDS011;24243;51.956;5.902;2023-04-24T05:58:43;1.98;;;1.30;;
38463;SDS011;24243;51.956;5.902;2023-04-24T06:01:10;1.75;;;1.40;;
38463;SDS011;24243;51.956;5.902;2023-04-24T06:03:37;2.90;;;1.17;;
38463;SDS011;24243;51.956;5.902;2023-04-24T06:06:07;1.88;;;0.90;;
38463;SDS011;24243;51.956;5.902;2023-04-24T06:08:33;1.70;;;1.13;;
38463;SDS011;24243;51.956;5.902;2023-04-24T06:10:59;2.00;;;0.95;;
38463;SDS011;24243;51.956;5.902;2023-04-24T06:13:25;2.95;;;1.00;;
38463;SDS011;24243;51.956;5.902;2023-04-24T06:15:51;1.38;;;0.95;;
38463;SDS011;24243;51.956;5.902;2023-04-24T06:18:17;2.33;;;1.00;;
38463;SDS011;24243;51.956;5.902;2023-04-24T06:20:43;1.38;;;0.98;;
38463;SDS011;24243;51.956;5.902;2023-04-24T06:23:08;1.42;;;0.88;;
38463;SDS011;24243;51.956;5.902;2023-04-24T06:25:34;0.93;;;0.80;;
38463;SDS011;24243;51.956;5.902;2023-04-24T06:28:00;1.15;;;0.80;;
38463;SDS011;24243;51.956;5.902;2023-04-24T06:30:26;1.55;;;1.15;;
38463;SDS011;24243;51.956;5.902;2023-04-24T06:32:53;3.22;;;1.30;;
38463;SDS011;24243;51.956;5.902;2023-04-24T06:35:20;0.95;;;0.80;;
38463;SDS011;24243;51.956;5.902;2023-04-24T06:37:45;2.08;;;1.15;;
38463;SDS011;24243;51.956;5.902;2023-04-24T06:40:11;1.73;;;0.75;;
38463;SDS011;24243;51.956;5.902;2023-04-24T06:42:37;1.80;;;0.88;;
38463;SDS011;24243;51.956;5.902;2023-04-24T06:45:03;1.00;;;0.90;;
38463;SDS011;24243;51.956;5.902;2023-04-24T06:47:30;1.48;;;0.73;;
38463;SDS011;24243;51.956;5.902;2023-04-24T06:49:56;1.50;;;0.80;;
38463;SDS011;24243;51.956;5.902;2023-04-24T06:52:22;2.05;;;0.98;;
38463;SDS011;24243;51.956;5.902;2023-04-24T06:54:48;1.65;;;0.80;;
38463;SDS011;24243;51.956;5.902;2023-04-24T06:57:13;1.77;;;1.10;;
38463;SDS011;24243;51.956;5.902;2023-04-24T06:59:44;1.77;;;0.90;;
38463;SDS011;24243;51.956;5.902;2023-04-24T07:02:09;1.45;;;0.80;;
38463;SDS011;24243;51.956;5.902;2023-04-24T07:04:35;1.63;;;0.98;;
38463;SDS011;24243;51.956;5.902;2023-04-24T07:07:02;1.23;;;0.77;;
38463;SDS011;24243;51.956;5.902;2023-04-24T07:09:27;1.17;;;0.73;;
38463;SDS011;24243;51.956;5.902;2023-04-24T07:11:54;1.98;;;0.93;;
38463;SDS011;24243;51.956;5.902;2023-04-24T07:14:21;1.58;;;1.02;;
38463;SDS011;24243;51.956;5.902;2023-04-24T07:16:47;1.60;;;0.80;;
38463;SDS011;24243;51.956;5.902;2023-04-24T07:19:13;2.58;;;0.80;;
38463;SDS011;24243;51.956;5.902;2023-04-24T07:21:39;1.60;;;0.77;;
38463;SDS011;24243;51.956;5.902;2023-04-24T07:24:05;3.58;;;1.00;;
38463;SDS011;24243;51.956;5.902;2023-04-24T07:26:34;2.50;;;0.88;;
38463;SDS011;24243;51.956;5.902;2023-04-24T07:29:00;1.95;;;0.90;;
38463;SDS011;24243;51.956;5.902;2023-04-24T07:31:26;1.30;;;0.70;;
38463;SDS011;24243;51.956;5.902;2023-04-24T07:33:51;2.15;;;1.10;;
38463;SDS011;24243;51.956;5.902;2023-04-24T07:36:17;1.65;;;0.82;;
38463;SDS011;24243;51.956;5.902;2023-04-24T07:38:47;1.08;;;0.77;;
38463;SDS011;24243;51.956;5.902;2023-04-24T07:41:13;1.17;;;0.80;;
38463;SDS011;24243;51.956;5.902;2023-04-24T07:43:39;1.83;;;0.90;;
38463;SDS011;24243;51.956;5.902;2023-04-24T07:46:06;0.77;;;0.63;;
38463;SDS011;24243;51.956;5.902;2023-04-24T07:48:33;0.65;;;0.50;;
38463;SDS011;24243;51.956;5.902;2023-04-24T07:51:00;0.98;;;0.70;;
38463;SDS011;24243;51.956;5.902;2023-04-24T07:53:25;0.55;;;0.50;;
38463;SDS011;24243;51.956;5.902;2023-04-24T07:55:51;1.98;;;0.70;;
38463;SDS011;24243;51.956;5.902;2023-04-24T07:58:18;0.52;;;0.50;;
38463;SDS011;24243;51.956;5.902;2023-04-24T08:00:44;0.90;;;0.50;;
38463;SDS011;24243;51.956;5.902;2023-04-24T08:03:10;1.10;;;0.60;;
38463;SDS011;24243;51.956;5.902;2023-04-24T08:05:37;1.38;;;0.60;;
38463;SDS011;24243;51.956;5.902;2023-04-24T08:08:03;1.20;;;0.60;;
38463;SDS011;24243;51.956;5.902;2023-04-24T08:10:29;0.40;;;0.40;;
38463;SDS011;24243;51.956;5.902;2023-04-24T08:12:54;1.50;;;0.60;;
38463;SDS011;24243;51.956;5.902;2023-04-24T08:15:20;1.80;;;0.55;;
38463;SDS011;24243;51.956;5.902;2023-04-24T08:17:46;1.10;;;0.57;;
38463;SDS011;24243;51.956;5.902;2023-04-24T08:20:12;1.70;;;0.50;;
38463;SDS011;24243;51.956;5.902;2023-04-24T08:22:41;0.70;;;0.32;;
38463;SDS011;24243;51.956;5.902;2023-04-24T08:25:08;4.32;;;0.77;;
38463;SDS011;24243;51.956;5.902;2023-04-24T08:27:34;0.60;;;0.47;;
38463;SDS011;24243;51.956;5.902;2023-04-24T08:30:01;1.48;;;0.40;;
38463;SDS011;24243;51.956;5.902;2023-04-24T08:32:31;0.73;;;0.40;;
38463;SDS011;24243;51.956;5.902;2023-04-24T08:34:58;0.80;;;0.50;;
38463;SDS011;24243;51.956;5.902;2023-04-24T08:37:25;1.00;;;0.52;;
38463;SDS011;24243;51.956;5.902;2023-04-24T08:39:52;1.25;;;0.60;;
38463;SDS011;24243;51.956;5.902;2023-04-24T08:42:18;0.70;;;0.50;;
38463;SDS011;24243;51.956;5.902;2023-04-24T08:44:45;1.75;;;0.57;;
38463;SDS011;24243;51.956;5.902;2023-04-24T08:47:13;2.20;;;0.70;;
38463;SDS011;24243;51.956;5.902;2023-04-24T08:49:40;1.27;;;0.60;;
38463;SDS011;24243;51.956;5.902;2023-04-24T08:52:08;1.00;;;0.50;;
38463;SDS011;24243;51.956;5.902;2023-04-24T08:54:34;1.75;;;0.50;;
38463;SDS011;24243;51.956;5.902;2023-04-24T08:57:00;1.25;;;0.57;;
38463;SDS011;24243;51.956;5.902;2023-04-24T08:59:28;1.98;;;0.90;;
38463;SDS011;24243;51.956;5.902;2023-04-24T09:01:55;0.95;;;0.50;;
38463;SDS011;24243;51.956;5.902;2023-04-24T09:04:22;1.02;;;0.63;;
38463;SDS011;24243;51.956;5.902;2023-04-24T09:06:56;1.70;;;0.68;;
38463;SDS011;24243;51.956;5.902;2023-04-24T09:09:23;1.77;;;0.70;;
38463;SDS011;24243;51.956;5.902;2023-04-24T09:11:50;0.77;;;0.52;;
38463;SDS011;24243;51.956;5.902;2023-04-24T09:14:18;1.25;;;0.65;;
38463;SDS011;24243;51.956;5.902;2023-04-24T09:16:45;1.58;;;0.55;;
38463;SDS011;24243;51.956;5.902;2023-04-24T09:19:12;1.70;;;0.70;;
38463;SDS011;24243;51.956;5.902;2023-04-24T09:21:38;2.97;;;0.90;;
38463;SDS011;24243;51.956;5.902;2023-04-24T09:24:06;1.48;;;0.70;;
38463;SDS011;24243;51.956;5.902;2023-04-24T09:26:36;1.58;;;0.70;;
38463;SDS011;24243;51.956;5.902;2023-04-24T09:31:28;4.82;;;0.70;;
38463;SDS011;24243;51.956;5.902;2023-04-24T09:34:01;1.80;;;0.65;;
38463;SDS011;24243;51.956;5.902;2023-04-24T09:36:34;3.22;;;0.70;;
38463;SDS011;24243;51.956;5.902;2023-04-24T09:39:08;2.30;;;0.90;;
38463;SDS011;24243;51.956;5.902;2023-04-24T09:41:43;2.83;;;0.63;;
38463;SDS011;24243;51.956;5.902;2023-04-24T09:44:16;2.33;;;0.52;;
38463;SDS011;24243;51.956;5.902;2023-04-24T09:46:53;2.20;;;0.80;;
38463;SDS011;24243;51.956;5.902;2023-04-24T09:49:30;1.58;;;0.70;;
38463;SDS011;24243;51.956;5.902;2023-04-24T09:54:29;1.05;;;0.60;;
38463;SDS011;24243;51.956;5.902;2023-04-24T09:56:55;1.55;;;0.65;;
38463;SDS011;24243;51.956;5.902;2023-04-24T09:59:22;1.50;;;0.70;;
38463;SDS011;24243;51.956;5.902;2023-04-24T10:01:48;1.27;;;0.60;;
38463;SDS011;24243;51.956;5.902;2023-04-24T10:04:15;2.55;;;0.80;;
38463;SDS011;24243;51.956;5.902;2023-04-24T10:06:45;1.77;;;0.70;;
38463;SDS011;24243;51.956;5.902;2023-04-24T10:09:13;2.63;;;0.70;;
38463;SDS011;24243;51.956;5.902;2023-04-24T10:11:44;1.15;;;0.60;;
38463;SDS011;24243;51.956;5.902;2023-04-24T10:14:15;2.63;;;0.77;;
38463;SDS011;24243;51.956;5.902;2023-04-24T10:16:43;1.35;;;1.10;;
38463;SDS011;24243;51.956;5.902;2023-04-24T10:19:12;2.70;;;0.80;;
38463;SDS011;24243;51.956;5.902;2023-04-24T10:21:39;1.40;;;0.70;;
38463;SDS011;24243;51.956;5.902;2023-04-24T10:24:15;3.22;;;0.73;;
38463;SDS011;24243;51.956;5.902;2023-04-24T10:26:42;0.98;;;0.50;;
38463;SDS011;24243;51.956;5.902;2023-04-24T10:29:10;0.82;;;0.60;;
38463;SDS011;24243;51.956;5.902;2023-04-24T10:31:37;1.77;;;0.95;;
38463;SDS011;24243;51.956;5.902;2023-04-24T10:34:05;1.98;;;0.80;;
38463;SDS011;24243;51.956;5.902;2023-04-24T10:36:32;2.58;;;0.90;;
38463;SDS011;24243;51.956;5.902;2023-04-24T10:39:02;1.73;;;0.65;;
38463;SDS011;24243;51.956;5.902;2023-04-24T10:41:31;2.65;;;0.57;;
38463;SDS011;24243;51.956;5.902;2023-04-24T10:44:10;1.00;;;0.50;;
38463;SDS011;24243;51.956;5.902;2023-04-24T10:46:37;1.50;;;0.60;;
38463;SDS011;24243;51.956;5.902;2023-04-24T10:49:07;1.58;;;0.60;;
38463;SDS011;24243;51.956;5.902;2023-04-24T10:51:52;1.33;;;0.85;;
38463;SDS011;24243;51.956;5.902;2023-04-24T10:54:25;1.40;;;0.57;;
38463;SDS011;24243;51.956;5.902;2023-04-24T10:59:43;0.57;;;0.40;;
38463;SDS011;24243;51.956;5.902;2023-04-24T11:02:10;1.70;;;0.93;;
38463;SDS011;24243;51.956;5.902;2023-04-24T11:04:36;2.10;;;0.52;;
38463;SDS011;24243;51.956;5.902;2023-04-24T11:07:04;2.38;;;0.80;;
38463;SDS011;24243;51.956;5.902;2023-04-24T11:09:30;1.33;;;0.47;;
38463;SDS011;24243;51.956;5.902;2023-04-24T11:12:06;1.40;;;0.50;;
38463;SDS011;24243;51.956;5.902;2023-04-24T11:17:33;1.27;;;0.60;;
38463;SDS011;24243;51.956;5.902;2023-04-24T11:20:06;1.50;;;0.70;;
38463;SDS011;24243;51.956;5.902;2023-04-24T11:22:35;1.33;;;0.40;;
38463;SDS011;24243;51.956;5.902;2023-04-24T11:25:02;1.15;;;0.30;;
38463;SDS011;24243;51.956;5.902;2023-04-24T11:27:38;0.85;;;0.32;;
38463;SDS011;24243;51.956;5.902;2023-04-24T11:30:06;0.93;;;0.40;;
38463;SDS011;24243;51.956;5.902;2023-04-24T11:37:35;1.55;;;0.47;;
38463;SDS011;24243;51.956;5.902;2023-04-24T11:40:06;1.60;;;0.40;;
38463;SDS011;24243;51.956;5.902;2023-04-24T11:42:37;0.85;;;0.50;;
38463;SDS011;24243;51.956;5.902;2023-04-24T11:45:08;0.73;;;0.30;;
38463;SDS011;24243;51.956;5.902;2023-04-24T11:47:35;1.10;;;0.60;;
38463;SDS011;24243;51.956;5.902;2023-04-24T11:50:01;1.13;;;0.50;;
38463;SDS011;24243;51.956;5.902;2023-04-24T11:52:29;0.85;;;0.63;;
38463;SDS011;24243;51.956;5.902;2023-04-24T11:54:55;1.50;;;0.60;;
38463;SDS011;24243;51.956;5.902;2023-04-24T11:57:22;0.68;;;0.35;;
38463;SDS011;24243;51.956;5.902;2023-04-24T11:59:51;1.33;;;0.40;;
38463;SDS011;24243;51.956;5.902;2023-04-24T12:02:23;1.65;;;0.47;;
38463;SDS011;24243;51.956;5.902;2023-04-24T12:04:50;1.52;;;0.50;;
38463;SDS011;24243;51.956;5.902;2023-04-24T12:07:19;0.30;;;0.28;;
38463;SDS011;24243;51.956;5.902;2023-04-24T12:12:14;0.98;;;0.30;;
38463;SDS011;24243;51.956;5.902;2023-04-24T12:14:42;0.77;;;0.38;;
38463;SDS011;24243;51.956;5.902;2023-04-24T12:17:15;1.35;;;0.40;;
38463;SDS011;24243;51.956;5.902;2023-04-24T12:19:46;0.40;;;0.30;;
38463;SDS011;24243;51.956;5.902;2023-04-24T12:22:12;2.13;;;0.35;;
38463;SDS011;24243;51.956;5.902;2023-04-24T12:27:22;2.80;;;0.40;;
38463;SDS011;24243;51.956;5.902;2023-04-24T12:29:52;0.57;;;0.40;;
38463;SDS011;24243;51.956;5.902;2023-04-24T12:32:21;0.80;;;0.40;;
38463;SDS011;24243;51.956;5.902;2023-04-24T12:34:49;1.25;;;0.40;;
38463;SDS011;24243;51.956;5.902;2023-04-24T12:37:16;1.65;;;0.30;;
38463;SDS011;24243;51.956;5.902;2023-04-24T12:39:57;0.65;;;0.25;;
38463;SDS011;24243;51.956;5.902;2023-04-24T12:42:25;0.55;;;0.30;;
38463;SDS011;24243;51.956;5.902;2023-04-24T12:44:55;1.80;;;0.20;;
38463;SDS011;24243;51.956;5.902;2023-04-24T12:47:23;1.38;;;0.35;;
38463;SDS011;24243;51.956;5.902;2023-04-24T12:49:49;2.70;;;0.45;;
38463;SDS011;24243;51.956;5.902;2023-04-24T12:52:17;0.52;;;0.22;;
38463;SDS011;24243;51.956;5.902;2023-04-24T12:54:45;0.45;;;0.45;;
38463;SDS011;24243;51.956;5.902;2023-04-24T12:57:11;2.30;;;0.30;;
38463;SDS011;24243;51.956;5.902;2023-04-24T12:59:36;0.50;;;0.20;;
38463;SDS011;24243;51.956;5.902;2023-04-24T13:02:02;1.02;;;0.40;;
38463;SDS011;24243;51.956;5.902;2023-04-24T13:04:28;0.50;;;0.20;;
38463;SDS011;24243;51.956;5.902;2023-04-24T13:06:53;1.30;;;0.30;;
38463;SDS011;24243;51.956;5.902;2023-04-24T13:09:19;0.50;;;0.20;;
38463;SDS011;24243;51.956;5.902;2023-04-24T13:11:45;1.55;;;0.40;;
38463;SDS011;24243;51.956;5.902;2023-04-24T13:14:10;0.98;;;0.35;;
38463;SDS011;24243;51.956;5.902;2023-04-24T13:16:36;0.52;;;0.25;;
38463;SDS011;24243;51.956;5.902;2023-04-24T13:19:02;0.40;;;0.20;;
38463;SDS011;24243;51.956;5.902;2023-04-24T13:21:27;0.30;;;0.30;;
38463;SDS011;24243;51.956;5.902;2023-04-24T13:23:55;0.55;;;0.22;;
38463;SDS011;24243;51.956;5.902;2023-04-24T13:26:21;0.75;;;0.22;;
38463;SDS011;24243;51.956;5.902;2023-04-24T13:28:46;0.68;;;0.20;;
38463;SDS011;24243;51.956;5.902;2023-04-24T13:31:12;0.90;;;0.40;;
38463;SDS011;24243;51.956;5.902;2023-04-24T13:33:38;1.42;;;0.20;;
38463;SDS011;24243;51.956;5.902;2023-04-24T13:36:05;0.65;;;0.30;;
38463;SDS011;24243;51.956;5.902;2023-04-24T13:38:31;0.35;;;0.28;;
38463;SDS011;24243;51.956;5.902;2023-04-24T13:40:56;1.58;;;0.20;;
38463;SDS011;24243;51.956;5.902;2023-04-24T13:43:22;0.63;;;0.30;;
38463;SDS011;24243;51.956;5.902;2023-04-24T13:45:48;0.43;;;0.17;;
38463;SDS011;24243;51.956;5.902;2023-04-24T13:48:14;0.45;;;0.20;;
38463;SDS011;24243;51.956;5.902;2023-04-24T13:50:40;0.50;;;0.20;;
38463;SDS011;24243;51.956;5.902;2023-04-24T13:53:07;1.10;;;0.20;;
38463;SDS011;24243;51.956;5.902;2023-04-24T13:55:33;1.13;;;0.30;;
38463;SDS011;24243;51.956;5.902;2023-04-24T13:57:59;0.77;;;0.25;;
38463;SDS011;24243;51.956;5.902;2023-04-24T14:00:26;0.50;;;0.20;;
38463;SDS011;24243;51.956;5.902;2023-04-24T14:02:52;0.93;;;0.30;;
38463;SDS011;24243;51.956;5.902;2023-04-24T14:05:18;0.95;;;0.40;;
38463;SDS011;24243;51.956;5.902;2023-04-24T14:07:43;1.27;;;0.40;;
38463;SDS011;24243;51.956;5.902;2023-04-24T14:10:09;0.93;;;0.25;;
38463;SDS011;24243;51.956;5.902;2023-04-24T14:12:35;2.03;;;0.22;;
38463;SDS011;24243;51.956;5.902;2023-04-24T14:15:01;0.57;;;0.22;;
38463;SDS011;24243;51.956;5.902;2023-04-24T14:17:29;1.13;;;0.25;;
38463;SDS011;24243;51.956;5.902;2023-04-24T14:19:55;0.52;;;0.25;;
38463;SDS011;24243;51.956;5.902;2023-04-24T14:22:21;1.55;;;0.50;;
38463;SDS011;24243;51.956;5.902;2023-04-24T14:24:47;0.55;;;0.20;;
38463;SDS011;24243;51.956;5.902;2023-04-24T14:27:13;0.45;;;0.30;;
38463;SDS011;24243;51.956;5.902;2023-04-24T14:29:39;0.47;;;0.25;;
38463;SDS011;24243;51.956;5.902;2023-04-24T14:32:04;1.38;;;0.30;;
38463;SDS011;24243;51.956;5.902;2023-04-24T14:34:30;0.60;;;0.25;;
38463;SDS011;24243;51.956;5.902;2023-04-24T14:36:56;0.73;;;0.30;;
38463;SDS011;24243;51.956;5.902;2023-04-24T14:39:21;1.50;;;0.22;;
38463;SDS011;24243;51.956;5.902;2023-04-24T14:41:47;0.93;;;0.40;;
38463;SDS011;24243;51.956;5.902;2023-04-24T14:44:13;1.20;;;0.60;;
38463;SDS011;24243;51.956;5.902;2023-04-24T14:46:38;2.40;;;0.45;;
38463;SDS011;24243;51.956;5.902;2023-04-24T14:49:04;1.38;;;0.47;;
38463;SDS011;24243;51.956;5.902;2023-04-24T14:51:30;2.67;;;0.40;;
38463;SDS011;24243;51.956;5.902;2023-04-24T14:53:56;0.80;;;0.38;;
38463;SDS011;24243;51.956;5.902;2023-04-24T14:56:22;0.77;;;0.20;;
38463;SDS011;24243;51.956;5.902;2023-04-24T14:58:48;3.90;;;0.32;;
38463;SDS011;24243;51.956;5.902;2023-04-24T15:01:14;2.13;;;0.45;;
38463;SDS011;24243;51.956;5.902;2023-04-24T15:03:39;1.23;;;0.40;;
38463;SDS011;24243;51.956;5.902;2023-04-24T15:06:06;0.98;;;0.40;;